createdAt,value
2022-11-28T00:01:35.671Z,18.98
2022-11-28T00:04:03.900Z,20.45
2022-11-28T00:06:31.358Z,20.17
2022-11-28T00:08:59.952Z,20.17
2022-11-28T00:11:27.160Z,19.17
2022-11-28T00:13:54.942Z,19.83
2022-11-28T00:16:23.458Z,20.88
2022-11-28T00:18:51.998Z,19.90
2022-11-28T00:21:19.920Z,21.23
2022-11-28T00:23:47.856Z,21.10
2022-11-28T00:26:21.554Z,19.67
2022-11-28T00:28:50.161Z,19.88
2022-11-28T00:31:20.310Z,19.23
2022-11-28T00:33:47.608Z,19.33
2022-11-28T00:36:15.304Z,19.55
2022-11-28T00:38:42.817Z,20.75
2022-11-28T00:41:18.588Z,19.15
2022-11-28T00:43:46.714Z,20.25
2022-11-28T00:46:15.541Z,19.38
2022-11-28T00:48:43.042Z,19.88
2022-11-28T00:51:13.379Z,20.70
2022-11-28T00:53:42.630Z,19.40
2022-11-28T00:56:12.020Z,18.90
2022-11-28T01:01:12.556Z,19.90
2022-11-28T01:03:40.545Z,19.60
2022-11-28T01:06:09.091Z,19.27
2022-11-28T01:08:37.028Z,21.50
2022-11-28T01:11:04.772Z,18.50
2022-11-28T01:13:32.051Z,18.63
2022-11-28T01:15:59.393Z,19.33
2022-11-28T01:18:26.695Z,20.27
2022-11-28T01:20:53.995Z,17.50
2022-11-28T01:23:21.243Z,17.92
2022-11-28T01:25:48.438Z,17.83
2022-11-28T01:28:15.775Z,19.42
2022-11-28T01:30:43.032Z,19.67
2022-11-28T01:33:10.306Z,18.50
2022-11-28T01:35:37.530Z,19.17
2022-11-28T01:38:04.759Z,18.52
2022-11-28T01:40:32.250Z,20.02
2022-11-28T01:42:59.431Z,18.52
2022-11-28T01:45:30.410Z,17.98
2022-11-28T01:48:00.895Z,18.73
2022-11-28T01:50:29.905Z,18.80
2022-11-28T01:53:00.412Z,19.25
2022-11-28T01:55:30.817Z,18.95
2022-11-28T01:57:58.306Z,17.80
2022-11-28T02:00:25.643Z,18.75
2022-11-28T02:03:03.688Z,18.80
2022-11-28T02:05:30.910Z,18.52
2022-11-28T02:07:58.186Z,18.17
2022-11-28T02:10:37.010Z,17.08
2022-11-28T02:13:30.838Z,17.73
2022-11-28T02:16:06.910Z,17.48
2022-11-28T02:18:50.797Z,16.25
2022-11-28T02:21:18.417Z,17.23
2022-11-28T02:24:13.489Z,15.90
2022-11-28T02:26:43.405Z,17.50
2022-11-28T02:29:16.643Z,17.00
2022-11-28T02:32:10.808Z,17.05
2022-11-28T02:34:57.946Z,17.70
2022-11-28T02:37:36.311Z,18.35
2022-11-28T02:40:24.012Z,17.08
2022-11-28T02:43:04.724Z,16.60
2022-11-28T02:45:35.671Z,18.88
2022-11-28T02:48:05.403Z,18.40
2022-11-28T02:50:42.089Z,17.67
2022-11-28T02:53:19.110Z,18.58
2022-11-28T02:55:46.908Z,18.08
2022-11-28T02:58:14.267Z,17.77
2022-11-28T03:00:44.974Z,18.20
2022-11-28T03:03:38.387Z,17.30
2022-11-28T03:06:28.575Z,18.83
2022-11-28T03:09:06.595Z,17.90
2022-11-28T03:11:58.463Z,18.42
2022-11-28T03:14:40.910Z,17.60
2022-11-28T03:17:27.930Z,18.50
2022-11-28T03:20:07.514Z,19.20
2022-11-28T03:22:48.054Z,18.85
2022-11-28T03:25:21.016Z,19.75
2022-11-28T03:27:54.312Z,18.75
2022-11-28T03:30:28.362Z,19.27
2022-11-28T03:32:56.833Z,19.80
2022-11-28T03:35:27.565Z,18.87
2022-11-28T03:38:07.231Z,19.30
2022-11-28T03:40:42.117Z,19.27
2022-11-28T03:43:13.925Z,19.33
2022-11-28T03:45:53.463Z,19.73
2022-11-28T03:48:26.452Z,18.98
2022-11-28T03:51:05.771Z,18.30
2022-11-28T03:56:24.687Z,18.13
2022-11-28T03:58:59.979Z,19.58
2022-11-28T04:01:53.776Z,19.95
2022-11-28T04:04:48.763Z,19.40
2022-11-28T04:07:31.683Z,18.40
2022-11-28T04:10:06.356Z,18.48
2022-11-28T04:13:08.723Z,19.00
2022-11-28T04:15:44.748Z,18.08
2022-11-28T04:18:49.338Z,20.40
2022-11-28T04:21:33.530Z,18.30
2022-11-28T04:24:04.631Z,18.30
2022-11-28T04:26:37.714Z,17.73
2022-11-28T04:29:10.064Z,17.60
2022-11-28T04:31:39.284Z,17.73
2022-11-28T04:34:08.920Z,16.48
2022-11-28T04:36:38.645Z,17.42
2022-11-28T04:39:08.255Z,17.08
2022-11-28T04:41:42.538Z,17.25
2022-11-28T04:44:26.025Z,17.33
2022-11-28T04:46:54.596Z,17.02
2022-11-28T04:49:23.274Z,16.20
2022-11-28T04:51:59.337Z,16.83
2022-11-28T04:54:51.746Z,17.88
2022-11-28T04:57:25.680Z,16.98
2022-11-28T04:59:53.549Z,16.33
2022-11-28T05:02:21.863Z,16.77
2022-11-28T05:04:49.135Z,16.90
2022-11-28T05:07:16.347Z,17.33
2022-11-28T05:09:43.587Z,16.58
2022-11-28T05:12:10.891Z,17.70
2022-11-28T05:14:38.118Z,16.13
2022-11-28T05:17:05.395Z,17.98
2022-11-28T05:19:32.647Z,16.55
2022-11-28T05:21:59.981Z,17.60
2022-11-28T05:24:32.048Z,16.33
2022-11-28T05:26:59.714Z,17.00
2022-11-28T05:29:27.034Z,16.92
2022-11-28T05:31:54.604Z,16.48
2022-11-28T05:34:21.978Z,16.80
2022-11-28T05:36:49.154Z,17.35
2022-11-28T05:39:16.459Z,16.10
2022-11-28T05:41:43.655Z,16.85
2022-11-28T05:44:11.178Z,17.65
2022-11-28T05:46:38.427Z,16.15
2022-11-28T05:49:05.751Z,16.52
2022-11-28T05:51:33.272Z,17.75
2022-11-28T05:54:00.506Z,16.25
2022-11-28T05:56:27.684Z,17.05
2022-11-28T05:58:55.215Z,16.52
2022-11-28T06:01:24.745Z,17.17
2022-11-28T06:03:58.025Z,16.10
2022-11-28T06:06:25.558Z,16.48
2022-11-28T06:08:53.162Z,17.75
2022-11-28T06:11:22.018Z,17.48
2022-11-28T06:13:49.646Z,16.20
2022-11-28T06:16:22.569Z,17.35
2022-11-28T06:18:53.834Z,17.63
2022-11-28T06:21:21.288Z,17.35
2022-11-28T06:23:48.510Z,17.20
2022-11-28T06:26:17.970Z,16.10
2022-11-28T06:31:17.205Z,17.38
2022-11-28T06:33:44.560Z,16.30
2022-11-28T06:36:13.371Z,17.40
2022-11-28T06:38:40.764Z,17.90
2022-11-28T06:41:10.625Z,17.55
2022-11-28T06:43:37.988Z,18.20
2022-11-28T06:46:05.642Z,18.70
2022-11-28T06:48:32.971Z,18.30
2022-11-28T06:51:07.560Z,18.83
2022-11-28T06:53:36.138Z,17.92
2022-11-28T06:56:08.344Z,18.00
2022-11-28T06:58:35.816Z,17.40
2022-11-28T07:01:16.475Z,18.23
2022-11-28T07:03:44.646Z,19.45
2022-11-28T07:06:12.754Z,18.48
2022-11-28T07:08:40.375Z,17.95
2022-11-28T07:11:18.961Z,18.17
2022-11-28T07:13:47.160Z,19.70
2022-11-28T07:16:16.580Z,18.20
2022-11-28T07:18:44.487Z,17.98
2022-11-28T07:21:12.563Z,19.90
2022-11-28T07:23:39.818Z,18.23
2022-11-28T07:26:08.209Z,17.65
2022-11-28T07:28:35.658Z,19.17
2022-11-28T07:31:05.441Z,19.48
2022-11-28T07:33:32.872Z,17.55
2022-11-28T07:36:01.989Z,18.60
2022-11-28T07:38:29.514Z,17.77
2022-11-28T07:41:02.175Z,18.58
2022-11-28T07:43:29.428Z,20.48
2022-11-28T07:46:00.866Z,20.70
2022-11-28T07:48:28.746Z,19.73
2022-11-28T07:50:55.964Z,18.90
2022-11-28T07:53:23.222Z,18.25
2022-11-28T07:55:50.620Z,18.45
2022-11-28T07:58:17.938Z,19.75
2022-11-28T08:00:45.190Z,20.80
2022-11-28T08:03:12.380Z,18.63
2022-11-28T08:05:39.600Z,19.08
2022-11-28T08:08:06.990Z,19.38
2022-11-28T08:10:34.245Z,19.95
2022-11-28T08:13:01.532Z,20.23
2022-11-28T08:15:31.678Z,19.67
2022-11-28T08:17:58.958Z,19.25
2022-11-28T08:20:26.180Z,19.52
2022-11-28T08:22:53.468Z,18.80
2022-11-28T08:25:20.627Z,17.77
2022-11-28T08:27:47.953Z,19.35
2022-11-28T08:30:15.699Z,18.08
2022-11-28T08:32:42.920Z,18.85
2022-11-28T08:35:10.224Z,20.20
2022-11-28T08:37:37.443Z,19.75
2022-11-28T08:40:05.036Z,19.30
2022-11-28T08:42:32.280Z,19.20
2022-11-28T08:44:59.472Z,19.10
2022-11-28T08:47:27.047Z,19.58
2022-11-28T08:49:54.227Z,20.33
2022-11-28T08:52:22.157Z,19.40
2022-11-28T08:54:49.395Z,19.33
2022-11-28T08:57:16.580Z,19.02
2022-11-28T08:59:43.972Z,19.73
2022-11-28T09:02:12.587Z,18.70
2022-11-28T09:04:39.842Z,19.63
2022-11-28T09:07:07.061Z,20.30
2022-11-28T09:09:34.232Z,19.83
2022-11-28T09:12:01.551Z,20.15
2022-11-28T09:14:28.924Z,20.00
2022-11-28T09:16:56.229Z,21.88
2022-11-28T09:19:24.596Z,20.02
2022-11-28T09:21:57.349Z,20.05
2022-11-28T09:24:25.093Z,19.77
2022-11-28T09:26:52.376Z,19.88
2022-11-28T09:29:19.633Z,19.23
2022-11-28T09:31:47.706Z,19.77
2022-11-28T09:34:15.228Z,19.70
2022-11-28T09:36:42.486Z,19.38
2022-11-28T09:39:09.687Z,18.80
2022-11-28T09:41:59.717Z,19.65
2022-11-28T09:44:38.230Z,18.60
2022-11-28T09:47:12.039Z,19.23
2022-11-28T09:49:52.128Z,18.25
2022-11-28T09:52:31.655Z,19.15
2022-11-28T09:55:41.207Z,20.13
2022-11-28T09:58:26.676Z,18.35
2022-11-28T10:01:05.615Z,18.75
2022-11-28T10:03:37.565Z,18.55
2022-11-28T10:06:17.617Z,18.50
2022-11-28T10:09:06.377Z,18.02
2022-11-28T10:12:08.182Z,18.20
2022-11-28T10:14:55.034Z,17.33
2022-11-28T10:17:44.184Z,18.63
2022-11-28T10:20:23.999Z,19.52
2022-11-28T10:22:53.809Z,18.85
2022-11-28T10:25:39.399Z,17.95
2022-11-28T10:28:10.155Z,18.73
2022-11-28T10:30:40.858Z,19.05
2022-11-28T10:33:25.813Z,17.88
2022-11-28T10:35:58.410Z,18.45
2022-11-28T10:38:31.912Z,19.58
2022-11-28T10:41:07.351Z,19.40
2022-11-28T10:43:51.861Z,19.02
2022-11-28T10:46:31.493Z,19.23
2022-11-28T10:49:25.088Z,19.73
2022-11-28T10:52:15.826Z,19.38
2022-11-28T10:55:19.083Z,19.63
2022-11-28T10:58:02.657Z,18.23
2022-11-28T11:00:30.022Z,18.17
2022-11-28T11:02:59.301Z,19.08
2022-11-28T11:05:29.412Z,19.33
2022-11-28T11:08:03.129Z,18.75
2022-11-28T11:10:41.836Z,18.73
2022-11-28T11:13:23.686Z,18.42
2022-11-28T11:16:04.225Z,18.67
2022-11-28T11:18:34.949Z,18.92
2022-11-28T11:21:10.636Z,18.45
2022-11-28T11:23:38.659Z,17.98
2022-11-28T11:26:10.401Z,19.02
2022-11-28T11:28:41.987Z,18.83
2022-11-28T11:31:22.671Z,17.88
2022-11-28T11:34:03.488Z,18.45
2022-11-28T11:36:33.188Z,17.55
2022-11-28T11:39:11.084Z,18.40
2022-11-28T11:41:40.385Z,18.80
2022-11-28T11:44:20.542Z,18.65
2022-11-28T11:47:01.738Z,17.63
2022-11-28T11:49:44.407Z,16.90
2022-11-28T11:52:21.706Z,17.77
2022-11-28T11:54:57.331Z,19.08
2022-11-28T11:57:37.448Z,18.85
2022-11-28T12:00:22.908Z,17.45
2022-11-28T12:02:59.744Z,17.85
2022-11-28T12:05:38.207Z,18.45
2022-11-28T12:08:34.672Z,16.67
2022-11-28T12:11:12.751Z,16.88
2022-11-28T12:13:40.008Z,17.70
2022-11-28T12:16:38.320Z,17.90
2022-11-28T12:19:31.809Z,18.48
2022-11-28T12:22:36.030Z,16.95
2022-11-28T12:25:22.298Z,18.08
2022-11-28T12:27:56.784Z,17.58
2022-11-28T12:30:55.339Z,16.33
2022-11-28T12:33:47.356Z,17.20
2022-11-28T12:36:37.185Z,17.30
2022-11-28T12:39:21.543Z,17.17
2022-11-28T12:42:13.111Z,18.13
2022-11-28T12:45:18.764Z,17.13
2022-11-28T12:48:14.810Z,17.20
2022-11-28T12:50:49.271Z,17.70
2022-11-28T12:53:30.523Z,18.13
2022-11-28T12:56:19.354Z,17.45
2022-11-28T12:59:06.983Z,18.17
2022-11-28T13:01:45.796Z,16.17
2022-11-28T13:04:41.516Z,16.83
2022-11-28T13:07:26.730Z,15.88
2022-11-28T13:10:19.447Z,16.67
2022-11-28T13:12:59.039Z,16.48
2022-11-28T13:15:38.738Z,16.58
2022-11-28T13:18:06.218Z,16.73
2022-11-28T13:20:56.072Z,17.67
2022-11-28T13:23:36.099Z,16.25
2022-11-28T13:26:17.313Z,16.42
2022-11-28T13:28:58.096Z,16.63
2022-11-28T13:31:27.503Z,15.93
2022-11-28T13:39:49.299Z,15.55
2022-11-28T13:42:58.845Z,14.82
2022-11-28T13:45:32.588Z,15.60
2022-11-28T13:48:01.212Z,15.95
2022-11-28T13:50:32.364Z,15.13
2022-11-28T13:53:07.624Z,16.08
2022-11-28T13:55:40.753Z,16.58
2022-11-28T13:58:49.148Z,15.55
2022-11-28T14:01:18.331Z,16.40
2022-11-28T14:04:11.946Z,15.80
2022-11-28T14:06:47.413Z,14.98
2022-11-28T14:09:17.599Z,17.38
2022-11-28T14:11:57.079Z,16.05
2022-11-28T14:14:40.683Z,15.90
2022-11-28T14:17:37.300Z,18.52
2022-11-28T14:20:36.546Z,16.40
2022-11-28T14:25:51.608Z,16.48
2022-11-28T14:28:25.667Z,16.55
2022-11-28T14:31:09.828Z,16.02
2022-11-28T14:33:44.675Z,16.30
2022-11-28T14:36:36.538Z,17.38
2022-11-28T14:39:15.878Z,17.45
2022-11-28T14:45:06.462Z,19.98
2022-11-28T14:47:39.506Z,20.25
2022-11-28T14:50:09.354Z,20.50
2022-11-28T14:52:47.935Z,20.77
2022-11-28T14:55:27.636Z,20.73
2022-11-28T14:57:55.029Z,21.25
2022-11-28T15:00:27.971Z,20.83
2022-11-28T15:03:15.805Z,21.92
2022-11-28T15:06:25.317Z,19.73
2022-11-28T15:09:01.930Z,21.45
2022-11-28T15:11:41.366Z,21.45
2022-11-28T15:16:48.449Z,20.25
2022-11-28T15:19:36.665Z,21.40
2022-11-28T15:22:06.366Z,21.80
2022-11-28T15:24:35.457Z,21.65
2022-11-28T15:27:08.737Z,21.50
2022-11-28T15:29:36.722Z,22.17
2022-11-28T15:32:04.351Z,22.40
2022-11-28T15:34:34.716Z,21.98
2022-11-28T15:37:07.143Z,22.67
2022-11-28T15:39:40.505Z,22.00
2022-11-28T15:42:28.847Z,21.73
2022-11-28T15:45:30.983Z,21.75
2022-11-28T15:47:58.856Z,21.00
2022-11-28T15:50:29.289Z,22.08
2022-11-28T15:53:01.837Z,20.67
2022-11-28T15:55:31.239Z,21.77
2022-11-28T16:00:49.292Z,22.42
2022-11-28T16:03:20.957Z,22.63
2022-11-28T16:05:49.030Z,22.58
2022-11-28T16:08:30.653Z,22.98
2022-11-28T16:10:59.294Z,23.02
2022-11-28T16:13:28.802Z,23.65
2022-11-28T16:15:58.391Z,23.00
2022-11-28T16:18:36.939Z,24.35
2022-11-28T16:21:04.420Z,22.80
2022-11-28T16:23:35.690Z,23.27
2022-11-28T16:26:19.458Z,23.92
2022-11-28T16:29:09.734Z,24.55
2022-11-28T16:31:36.994Z,24.75
2022-11-28T16:34:04.465Z,24.27
2022-11-28T16:36:37.160Z,25.63
2022-11-28T16:39:10.359Z,24.30
2022-11-28T16:41:43.075Z,27.65
2022-11-28T16:44:14.873Z,24.95
2022-11-28T16:46:54.216Z,24.52
2022-11-28T16:52:21.919Z,25.20
2022-11-28T16:54:53.011Z,25.65
2022-11-28T16:57:20.918Z,26.15
2022-11-28T16:59:49.387Z,28.60
2022-11-28T17:02:19.646Z,28.10
2022-11-28T17:04:48.982Z,27.33
2022-11-28T17:07:18.597Z,29.70
2022-11-28T17:09:47.474Z,28.15
2022-11-28T17:12:28.872Z,28.75
2022-11-28T17:14:56.458Z,28.23
2022-11-28T17:17:30.814Z,28.10
2022-11-28T17:20:00.555Z,29.00
2022-11-28T17:22:43.004Z,27.55
2022-11-28T17:25:18.965Z,29.63
2022-11-28T17:27:48.026Z,30.02
2022-11-28T17:30:16.849Z,29.83
2022-11-28T17:32:44.329Z,29.58
2022-11-28T17:35:21.918Z,29.52
2022-11-28T17:37:53.344Z,28.13
2022-11-28T17:40:36.692Z,29.48
2022-11-28T17:43:04.428Z,28.15
2022-11-28T17:45:34.267Z,28.77
2022-11-28T17:48:01.537Z,30.45
2022-11-28T17:50:28.805Z,28.42
2022-11-28T17:52:56.031Z,28.00
2022-11-28T17:55:23.276Z,27.38
2022-11-28T17:57:52.547Z,29.10
2022-11-28T18:00:19.909Z,30.42
2022-11-28T18:02:47.129Z,28.42
2022-11-28T18:05:14.392Z,30.48
2022-11-28T18:07:41.730Z,28.77
2022-11-28T18:10:09.886Z,30.48
2022-11-28T18:12:38.249Z,31.17
2022-11-28T18:15:05.758Z,30.58
2022-11-28T18:17:33.304Z,29.98
2022-11-28T18:20:00.523Z,32.15
2022-11-28T18:22:27.763Z,31.98
2022-11-28T18:24:55.026Z,31.13
2022-11-28T18:27:22.242Z,32.03
2022-11-28T18:29:49.446Z,31.23
2022-11-28T18:32:24.264Z,33.58
2022-11-28T18:34:51.623Z,33.33
2022-11-28T18:37:18.845Z,33.53
2022-11-28T18:39:46.414Z,34.03
2022-11-28T18:42:13.779Z,33.03
2022-11-28T18:44:40.979Z,32.60
2022-11-28T18:47:08.210Z,33.13
2022-11-28T18:49:35.404Z,34.92
2022-11-28T18:52:02.591Z,33.03
2022-11-28T18:54:31.080Z,32.67
2022-11-28T18:56:58.330Z,33.97
2022-11-28T18:59:25.663Z,32.40
2022-11-28T19:01:52.931Z,34.38
2022-11-28T19:04:21.477Z,35.72
2022-11-28T19:06:48.750Z,33.37
2022-11-28T19:09:16.626Z,33.75
2022-11-28T19:11:44.483Z,35.40
2022-11-28T19:14:15.946Z,34.65
2022-11-28T19:16:45.781Z,34.75
2022-11-28T19:19:13.067Z,35.63
2022-11-28T19:21:40.292Z,35.83
2022-11-28T19:24:08.506Z,35.95
2022-11-28T19:26:37.351Z,35.47
2022-11-28T19:29:05.171Z,35.67
2022-11-28T19:31:37.147Z,37.35
2022-11-28T19:34:06.827Z,37.22
2022-11-28T19:36:36.362Z,38.20
2022-11-28T19:39:04.844Z,37.08
2022-11-28T19:41:32.469Z,37.93
2022-11-28T19:44:01.074Z,38.08
2022-11-28T19:46:35.011Z,39.30
2022-11-28T19:49:03.932Z,37.55
2022-11-28T19:51:31.186Z,39.42
2022-11-28T19:54:03.176Z,37.25
2022-11-28T19:56:32.328Z,39.15
2022-11-28T19:58:59.861Z,40.00
2022-11-28T20:01:27.992Z,39.50
2022-11-28T20:03:55.379Z,37.72
2022-11-28T20:06:29.105Z,39.65
2022-11-28T20:09:02.600Z,40.65
2022-11-28T20:11:32.976Z,39.35
2022-11-28T20:14:06.630Z,39.60
2022-11-28T20:16:38.562Z,38.50
2022-11-28T20:19:06.780Z,40.33
2022-11-28T20:21:35.512Z,40.35
2022-11-28T20:24:08.270Z,40.50
2022-11-28T20:26:39.565Z,39.53
2022-11-28T20:29:07.690Z,38.03
2022-11-28T20:31:45.832Z,39.05
2022-11-28T20:34:16.209Z,40.60
2022-11-28T20:36:44.024Z,39.63
2022-11-28T20:39:12.956Z,42.25
2022-11-28T20:41:40.301Z,40.25
2022-11-28T20:44:12.303Z,41.45
2022-11-28T20:46:39.953Z,39.35
2022-11-28T20:49:10.814Z,40.10
2022-11-28T20:51:38.189Z,37.92
2022-11-28T20:54:06.948Z,39.35
2022-11-28T20:57:05.152Z,41.70
2022-11-28T20:59:26.644Z,38.90
2022-11-28T21:01:54.071Z,40.20
2022-11-28T21:04:21.497Z,39.40
2022-11-28T21:06:49.320Z,39.28
2022-11-28T21:09:19.689Z,38.45
2022-11-28T21:11:58.123Z,39.20
2022-11-28T21:16:54.351Z,37.67
2022-11-28T21:19:21.848Z,37.75
2022-11-28T21:21:49.222Z,38.42
2022-11-28T21:24:19.633Z,39.65
2022-11-28T21:26:52.919Z,37.40
2022-11-28T21:29:21.678Z,36.58
2022-11-28T21:31:49.413Z,38.22
2022-11-28T21:34:17.730Z,38.88
2022-11-28T21:36:45.916Z,39.30
2022-11-28T21:39:14.886Z,38.35
2022-11-28T21:41:42.248Z,36.40
2022-11-28T21:44:09.815Z,36.40
2022-11-28T21:46:37.013Z,37.25
2022-11-28T21:49:04.264Z,38.33
2022-11-28T21:51:32.725Z,36.97
2022-11-28T21:53:59.970Z,37.80
2022-11-28T21:56:27.235Z,36.47
2022-11-28T21:58:54.544Z,39.17
2022-11-28T22:01:22.173Z,37.50
2022-11-28T22:03:49.481Z,38.95
2022-11-28T22:06:20.203Z,38.38
2022-11-28T22:08:48.727Z,37.38
2022-11-28T22:11:17.348Z,38.03
2022-11-28T22:13:46.157Z,37.78
2022-11-28T22:16:21.287Z,37.28
2022-11-28T22:18:49.684Z,36.30
2022-11-28T22:24:04.509Z,37.13
2022-11-28T22:26:32.063Z,37.95
2022-11-28T22:28:59.334Z,37.22
2022-11-28T22:31:26.816Z,37.40
2022-11-28T22:33:54.053Z,36.97
2022-11-28T22:36:22.439Z,35.78
2022-11-28T22:38:53.856Z,36.58
2022-11-28T22:41:28.444Z,36.72
2022-11-28T22:43:59.559Z,35.28
2022-11-28T22:46:29.177Z,35.20
2022-11-28T22:48:56.475Z,36.03
2022-11-28T22:51:25.677Z,35.75
2022-11-28T22:53:54.430Z,35.85
2022-11-28T22:56:21.994Z,36.63
2022-11-28T22:58:49.445Z,37.75
2022-11-28T23:01:28.546Z,38.03
2022-11-28T23:03:55.969Z,37.95
2022-11-28T23:06:25.682Z,35.40
2022-11-28T23:08:53.424Z,37.00
2022-11-28T23:11:25.815Z,37.60
2022-11-28T23:13:53.531Z,37.33
2022-11-28T23:16:26.617Z,37.88
2022-11-28T23:18:56.232Z,37.55
2022-11-28T23:21:24.829Z,39.33
2022-11-28T23:23:53.205Z,37.70
2022-11-28T23:26:23.056Z,38.50
2022-11-28T23:28:50.478Z,38.00
2022-11-28T23:31:20.113Z,38.22
2022-11-28T23:33:48.221Z,38.63
2022-11-28T23:36:29.786Z,38.83
2022-11-28T23:38:59.761Z,38.67
2022-11-28T23:41:28.239Z,39.67
2022-11-28T23:43:55.428Z,38.20
2022-11-28T23:46:23.496Z,38.80
2022-11-28T23:48:50.975Z,38.03
2022-11-28T23:51:20.075Z,38.33
2022-11-28T23:53:47.295Z,37.97
2022-11-28T23:56:17.100Z,38.03
2022-11-28T23:58:44.610Z,37.83
